Home > Products > Valid Products > TAF

000
FTUS45 KMSO 232320
TAFMSO
TAF
KMSO 232320Z 2400/2424 15007KT P6SM VCSH BKN080 BKN120
     FM240200 VRB03KT P6SM SCT100
     FM241000 VRB03KT P6SM SKC=



000
FTUS45 KMSO 232320
TAFGPI
TAF
KGPI 232320Z 2400/2424 VRB05KT P6SM BKN090
     FM240900 VRB03KT P6SM VCSH BKN090
     FM241400 VRB05KT P6SM SCT150=



000
FTUS45 KMSO 232320
TAFBTM
TAF
KBTM 232320Z 2400/2424 19007KT P6SM VCSH BKN100
     FM240600 VRB04KT P6SM SKC=



000
FTUS45 KMSO 232320
TAFSMN
TAF
KSMN 232320Z 2400/2424 VRB05KT P6SM BKN100
     FM240600 VRB05KT P6SM SKC
      AMD LTD TO CLD VIS AND WIND=



000
FTUS45 KMSO 231721
TAFSMN
TAF
KSMN 231721Z 2318/2418 VRB05KT P6SM SCT100 BKN200
      AMD LTD TO CLD VIS AND WIND=



000
FTUS45 KMSO 231721
TAFBTM
TAF
KBTM 231721Z 2318/2418 18006KT P6SM SCT080
     FM240000 19006KT P6SM BKN100
     FM240600 16003KT P6SM BKN250=



000
FTUS45 KMSO 231721
TAFGPI
TAF
KGPI 231721Z 2318/2418 VRB04KT P6SM SCT060
     FM232100 VRB05KT P6SM VCSH SCT070 BKN120
     FM232300 VRB05KT P6SM -SHRA BKN060 BKN090
     FM240300 VRB04KT P6SM BKN060
     FM240900 VRB03KT P6SM BKN150=



000
FTUS45 KMSO 231721
TAFMSO
TAF
KMSO 231721Z 2318/2418 VRB04KT P6SM SCT080 BKN200
     FM232100 27005KT P6SM VCSH BKN080 BKN120
     FM240100 VRB03KT P6SM BKN100
     FM240800 VRB03KT P6SM BKN200=



000
FTUS45 KMSO 231121
TAFBTM
TAF
KBTM 231121Z 2312/2412 VRB04KT P6SM FEW090=



000
FTUS45 KMSO 231121
TAFSMN
TAF
KSMN 231121Z 2312/2412 19003KT P6SM SCT070 BKN150
      AMD LTD TO CLD VIS AND WIND=



000
FTUS45 KMSO 231121
TAFGPI
TAF
KGPI 231121Z 2312/2412 18007KT P6SM SCT150
     FM231300 VRB06KT P6SM VCSH BKN050
     FM231700 VRB06KT P6SM SCT060
     FM232300 19010KT P6SM VCSH BKN060=



000
FTUS45 KMSO 231121
TAFMSO
TAF
KMSO 231121Z 2312/2412 VRB04KT P6SM BKN150
     FM231300 VRB06KT P6SM VCSH BKN060
     FM231700 VRB06KT P6SM SCT070=



000
FTUS45 KMSO 230522
TAFSMN
TAF
KSMN 230522Z 2306/2406 19003KT P6SM SCT070 BKN150
      AMD LTD TO CLD VIS AND WIND=



000
FTUS45 KMSO 230522
TAFMSO
TAF
KMSO 230522Z 2306/2406 VRB04KT P6SM BKN150
     FM231500 VRB06KT P6SM VCSH BKN060=



000
FTUS45 KMSO 230522
TAFGPI
TAF
KGPI 230522Z 2306/2406 18007KT P6SM SCT150
     FM231300 VRB06KT P6SM VCSH BKN050=



000
FTUS45 KMSO 230522
TAFBTM
TAF
KBTM 230522Z 2306/2406 VRB04KT P6SM FEW090=



000
FTUS45 KMSO 222320
TAFGPI
TAF
KGPI 222320Z 2300/2324 18007KT P6SM SCT150=



000
FTUS45 KMSO 222320
TAFBTM
TAF
KBTM 222320Z 2300/2324 16009KT P6SM BKN120
     FM230300 VRB04KT P6SM FEW090=



000
FTUS45 KMSO 222320
TAFSMN
TAF
KSMN 222320Z 2300/2324 20010KT P6SM SCT150
     FM230300 VRB04KT P6SM FEW090
      AMD LTD TO CLD VIS AND WIND=



000
FTUS45 KMSO 222320
TAFMSO
TAF
KMSO 222320Z 2300/2324 01009KT P6SM SCT150
     FM230300 VRB04KT P6SM BKN150=



000
FTUS45 KMSO 221907 AAA
TAFSMN
TAF AMD
KSMN 221907Z 2219/2318 20010G15KT P6SM FEW050 SCT070 OVC150
     FM230000 19003KT P6SM SCT070 BKN150
      AMD LTD TO CLD VIS AND WIND=



000
FTUS45 KMSO 221729
TAFBTM
TAF
KBTM 221729Z 2218/2318 28004KT P6SM SCT090
     FM222100 27010KT P6SM BKN080
     FM230300 VRB04KT P6SM FEW090=



000
FTUS45 KMSO 221729
TAFSMN
TAF
KSMN 221729Z 2218/2318 35005KT P6SM SCT070 OVC150
      AMD LTD TO CLD VIS AND WIND=



000
FTUS45 KMSO 221729
TAFMSO
TAF
KMSO 221729Z 2218/2318 VRB03KT P6SM FEW200
     FM222200 30009KT P6SM SCT150
     FM230300 VRB04KT P6SM BKN150=



000
FTUS45 KMSO 221729
TAFGPI
TAF
KGPI 221729Z 2218/2318 05005KT P6SM FEW200
     FM222100 18007KT P6SM SCT150=



000
FTUS45 KMSO 221120
TAFBTM
TAF
KBTM 221120Z 2212/2312 15006KT P6SM BKN150
     FM221400 20008KT P6SM VCSH FEW070 BKN100
     FM221800 28008KT P6SM BKN100=



000
FTUS45 KMSO 221120
TAFMSO
TAF
KMSO 221120Z 2212/2312 VRB03KT P6SM FEW200
     FM222200 30008KT P6SM BKN150=



000
FTUS45 KMSO 221120
TAFSMN
TAF
KSMN 221120Z 2212/2312 00000KT P6SM VCSH SCT150
     FM221400 15005KT P6SM -SHRA BKN050 OVC100
     FM221800 35005KT P6SM VCSH SCT070 OVC150
      AMD LTD TO CLD VIS AND WIND=



000
FTUS45 KMSO 221120
TAFGPI
TAF
KGPI 221120Z 2212/2312 00000KT P6SM FEW200
     FM222100 19008KT P6SM BKN150=



000
FTUS45 KMSO 220520
TAFSMN
TAF
KSMN 220520Z 2206/2306 VRB04KT P6SM SCT150
     FM220800 VRB05KT P6SM VCSH BKN100
     FM221400 33005KT P6SM -SHRA BKN050 OVC100
      AMD LTD TO CLD VIS AND WIND=



000
FTUS45 KMSO 220520
TAFBTM
TAF
KBTM 220520Z 2206/2306 15006KT P6SM SKC
     FM221200 20008KT P6SM VCSH FEW070 BKN100=



000
FTUS45 KMSO 220520
TAFMSO
TAF
KMSO 220520Z 2206/2306 31004KT P6SM FEW200
     FM222000 30008KT P6SM BKN150=



000
FTUS45 KMSO 220520
TAFGPI
TAF
KGPI 220520Z 2206/2306 00000KT P6SM SCT150
     FM221800 33008KT P6SM BKN150=



000
FTUS45 KMSO 212332
TAFMSO
TAF
KMSO 212332Z 2200/2224 VRB04KT P6SM FEW200
     FM222000 30008KT P6SM SCT150=



000
FTUS45 KMSO 212332
TAFGPI
TAF
KGPI 212332Z 2200/2224 VRB06KT P6SM SKC=



000
FTUS45 KMSO 212332
TAFBTM
TAF
KBTM 212332Z 2200/2224 15006KT P6SM SKC
     FM221500 20008KT P6SM VCSH FEW070 SCT150=



000
FTUS45 KMSO 212332
TAFSMN
TAF
KSMN 212332Z 2200/2224 VRB04KT P6SM SCT150
     FM220600 VRB05KT P6SM VCSH BKN100
      AMD LTD TO CLD VIS AND WIND=



000
FTUS45 KMSO 212331
TAFGPI
TAF
KGPI 212331Z 2200/2224 VRB06KT P6SM SKC=



000
FTUS45 KMSO 212331
TAFMSO
TAF
KMSO 212331Z 2200/2224 VRB04KT P6SM FEW200
     FM222000 30008KT P6SM SCT150=



000
FTUS45 KMSO 212331
TAFSMN
TAF
KSMN 212331Z 2200/2224 VRB04KT P6SM SCT150
     FM221000 VRB05KT P6SM VCSH BKN100
      AMD LTD TO CLD VIS AND WIND=



000
FTUS45 KMSO 212331
TAFBTM
TAF
KBTM 212331Z 2200/2224 15006KT P6SM SKC
     FM221500 20008KT P6SM VCSH FEW070 SCT150=



000
FTUS45 KMSO 211720
TAFBTM
TAF
KBTM 211720Z 2118/2218 15006KT P6SM SKC=



000
FTUS45 KMSO 211720
TAFMSO
TAF
KMSO 211720Z 2118/2218 15005KT P6SM SKC
     FM212200 35009KT P6SM SCT150
     FM220100 VRB04KT P6SM SCT150=



000
FTUS45 KMSO 211720
TAFGPI
TAF
KGPI 211720Z 2118/2218 VRB06KT P6SM SKC=



000
FTUS45 KMSO 211720
TAFSMN
TAF
KSMN 211720Z 2118/2218 VRB04KT P6SM BKN150
      AMD LTD TO CLD VIS AND WIND=



000
FTUS45 KMSO 211331 AAA
TAFBTM
TAF AMD
KBTM 211331Z 2114/2212 15006KT P6SM SKC=



000
FTUS45 KMSO 211331 AAA
TAFSMN
TAF AMD
KSMN 211331Z 2114/2212 VRB05KT P6SM SKC
     FM211800 18006KT P6SM BKN120
      AMD LTD TO CLD VIS AND WIND=



000
FTUS45 KMSO 211331 AAA
TAFGPI
TAF AMD
KGPI 211331Z 2114/2212 VRB06KT P6SM SKC=



000
FTUS45 KMSO 211331 AAA
TAFMSO
TAF AMD
KMSO 211331Z 2114/2212 VRB05KT P6SM SKC
     FM212200 35009KT P6SM SCT150
     FM220100 VRB04KT P6SM SCT120=



000
FTUS45 KMSO 211120
TAFMSO
TAF
KMSO 211120Z 2118/2218 VRB05KT P6SM SKC
     FM212200 35009KT P6SM SCT150
     FM220100 VRB04KT P6SM SCT120=



000
FTUS45 KMSO 211120
TAFGPI
TAF
KGPI 211120Z 2118/2218 VRB06KT P6SM SKC=



000
FTUS45 KMSO 211120
TAFSMN
TAF
KSMN 211120Z 2118/2218 VRB05KT P6SM SKC
     FM211800 18006KT P6SM BKN120
      AMD LTD TO CLD VIS AND WIND=



000
FTUS45 KMSO 211120
TAFBTM
TAF
KBTM 211120Z 2118/2218 15006KT P6SM SKC=



000
FTUS45 KMSO 210537
TAFBTM
TAF
KBTM 210537Z 2106/2206 15006KT P6SM SKC=



000
FTUS45 KMSO 210537
TAFMSO
TAF
KMSO 210537Z 2106/2206 VRB05KT P6SM SKC
     FM212200 35009KT P6SM SCT150
     FM220100 VRB04KT P6SM SCT120=



000
FTUS45 KMSO 210537
TAFGPI
TAF
KGPI 210537Z 2106/2206 VRB06KT P6SM SKC=



000
FTUS45 KMSO 210537
TAFSMN
TAF
KSMN 210537Z 2106/2206 VRB05KT P6SM SKC
     FM211800 18006KT P6SM BKN120
      AMD LTD TO CLD VIS AND WIND=



    US Dept of Commerce
    National Oceanic and Atmospheric Administration
    National Weather Service
    1325 East West Highway
    Silver Spring, MD 20910
    Page Author: NWS Internet Services Team
Disclaimer
Information Quality
Credits
Glossary
Privacy Policy
Freedom of Information Act (FOIA)
About Us
Career Opportunities